Time;durP1;ratioP1;P1;durP2;ratioP2;P2;SDS_P1;SDS_P2;PMS_P1;PMS_P2;Temp;Humidity;BMP_temperature;BMP_pressure;BME280_temperature;BME280_humidity;BME280_pressure;Samples;Min_cycle;Max_cycle;Signal;HPM_P1;HPM_P2
2021/10/28 00:13:59;;;;;;;13.85;4.00;;;20.40;82.80;;;;;;6183058;23;20020;-71
2021/10/28 00:16:30;;;;;;;9.05;3.67;;;20.40;82.90;;;;;;6182079;23;20356;-72
2021/10/28 00:19:03;;;;;;;10.13;4.78;;;20.40;82.60;;;;;;6182852;23;20083;-72
2021/10/28 00:21:32;;;;;;;13.73;5.00;;;20.40;82.70;;;;;;6182800;23;19997;-71
2021/10/28 00:24:03;;;;;;;13.85;4.93;;;20.40;82.60;;;;;;6181821;23;20435;-71
2021/10/28 00:26:32;;;;;;;12.77;5.15;;;20.40;82.80;;;;;;6181457;23;20508;-71
2021/10/28 00:29:19;;;;;;;8.45;3.70;;;20.40;82.60;;;;;;6181679;23;20004;-71
2021/10/28 00:31:47;;;;;;;9.68;5.20;;;20.40;82.40;;;;;;6183047;23;20032;-71
2021/10/28 00:34:15;;;;;;;11.40;4.25;;;20.30;82.10;;;;;;6182353;23;20083;-72
2021/10/28 00:36:45;;;;;;;13.80;4.57;;;20.30;82.10;;;;;;6181580;23;20303;-72
2021/10/28 00:39:12;;;;;;;8.65;3.63;;;20.30;82.20;;;;;;6182861;23;20001;-71
2021/10/28 00:41:39;;;;;;;10.65;4.50;;;20.30;82.30;;;;;;6181463;23;20001;-70
2021/10/28 00:44:07;;;;;;;9.55;3.58;;;20.20;82.30;;;;;;6182958;23;20072;-71
2021/10/28 00:46:37;;;;;;;12.20;4.28;;;20.20;82.30;;;;;;6181519;23;20100;-71
2021/10/28 00:49:08;;;;;;;8.40;4.00;;;20.20;82.40;;;;;;6182647;23;20123;-71
2021/10/28 00:51:35;;;;;;;8.95;4.25;;;20.20;82.60;;;;;;6182371;23;20120;-72
2021/10/28 00:54:02;;;;;;;11.13;5.45;;;20.20;82.70;;;;;;6181903;23;20059;-71
2021/10/28 00:56:32;;;;;;;12.57;4.93;;;20.20;82.60;;;;;;6182635;23;20001;-72
2021/10/28 00:59:01;;;;;;;8.60;4.78;;;20.20;82.60;;;;;;6181376;23;20012;-70
2021/10/28 01:01:29;;;;;;;10.07;4.00;;;20.20;82.80;;;;;;6182857;23;20072;-72
2021/10/28 01:03:56;;;;;;;10.05;4.18;;;20.20;83.20;;;;;;6181334;23;20052;-72
2021/10/28 01:06:23;;;;;;;10.45;4.53;;;20.10;83.00;;;;;;6182461;23;20428;-72
2021/10/28 01:08:50;;;;;;;15.18;5.28;;;20.10;83.10;;;;;;6182182;23;20023;-72
2021/10/28 01:11:17;;;;;;;10.38;5.45;;;20.10;83.10;;;;;;6182139;23;19993;-72
2021/10/28 01:13:44;;;;;;;16.30;7.55;;;20.10;83.40;;;;;;6182856;23;20040;-70
2021/10/28 01:16:11;;;;;;;20.58;9.35;;;20.10;83.40;;;;;;6181140;23;20005;-72
2021/10/28 01:18:38;;;;;;;15.40;9.48;;;20.10;83.20;;;;;;6182502;23;20320;-72
2021/10/28 01:21:08;;;;;;;13.32;7.97;;;20.10;83.20;;;;;;6181433;23;20001;-71
2021/10/28 01:23:36;;;;;;;16.80;9.35;;;20.10;83.10;;;;;;6182478;23;19997;-72
2021/10/28 01:26:05;;;;;;;20.70;10.45;;;20.10;83.00;;;;;;6181839;23;20004;-73
2021/10/28 01:28:34;;;;;;;13.68;10.07;;;20.10;83.20;;;;;;6181677;23;20005;-72
2021/10/28 01:31:04;;;;;;;24.38;10.00;;;20.00;83.30;;;;;;6182488;23;20009;-72
2021/10/28 01:33:30;;;;;;;16.48;9.40;;;20.10;83.40;;;;;;6181242;23;20040;-71
2021/10/28 01:35:57;;;;;;;19.02;10.77;;;20.00;83.60;;;;;;6182355;23;20437;-72
2021/10/28 01:38:24;;;;;;;14.23;8.63;;;20.00;83.80;;;;;;6179382;23;20373;-71
2021/10/28 01:40:55;;;;;;;15.50;9.13;;;20.00;84.60;;;;;;6182587;23;20056;-71
2021/10/28 01:43:23;;;;;;;15.77;8.60;;;20.00;84.00;;;;;;6181524;23;20008;-72
2021/10/28 01:45:50;;;;;;;17.80;9.00;;;19.90;84.30;;;;;;6181787;23;20009;-72
2021/10/28 01:48:18;;;;;;;13.38;8.48;;;19.90;84.20;;;;;;6182327;23;20055;-72
2021/10/28 01:50:45;;;;;;;14.55;8.70;;;19.90;84.40;;;;;;6180833;23;20008;-72
2021/10/28 01:53:12;;;;;;;16.50;8.20;;;19.90;84.40;;;;;;6182213;23;20020;-72
2021/10/28 01:55:39;;;;;;;14.05;7.30;;;19.90;84.30;;;;;;6180924;23;20012;-72
2021/10/28 01:58:06;;;;;;;115.72;103.05;;;19.90;84.20;;;;;;6182081;23;20332;-72
2021/10/28 02:00:34;;;;;;;63.28;50.92;;;19.90;84.20;;;;;;6181307;23;20433;-70
2021/10/28 02:03:00;;;;;;;13.10;10.60;;;19.90;84.20;;;;;;6181721;23;20020;-72
2021/10/28 02:05:27;;;;;;;13.80;6.55;;;19.90;84.00;;;;;;6182171;23;20076;-71
2021/10/28 02:07:53;;;;;;;7.95;4.65;;;19.90;83.80;;;;;;6181201;23;19993;-72
2021/10/28 02:10:21;;;;;;;11.57;4.07;;;19.80;83.70;;;;;;6182437;23;20005;-72
2021/10/28 02:12:49;;;;;;;9.73;3.95;;;19.80;83.70;;;;;;6181058;23;20752;-70
2021/10/28 02:15:19;;;;;;;9.27;4.65;;;19.70;83.70;;;;;;6182118;23;20005;-72
2021/10/28 02:17:46;;;;;;;11.20;3.95;;;19.70;83.70;;;;;;6181564;23;20408;-72
2021/10/28 02:20:16;;;;;;;12.98;5.82;;;19.70;83.60;;;;;;6181702;23;20381;-72
2021/10/28 02:22:44;;;;;;;11.98;4.05;;;19.70;83.60;;;;;;6181836;23;20063;-71
2021/10/28 02:25:12;;;;;;;11.93;4.55;;;19.70;83.80;;;;;;6180915;23;19993;-72
2021/10/28 02:27:39;;;;;;;9.65;5.00;;;19.60;83.70;;;;;;6182294;23;20446;-71
2021/10/28 02:30:08;;;;;;;5.88;4.13;;;19.60;83.70;;;;;;6180726;23;20064;-71
2021/10/28 02:32:34;;;;;;;7.63;5.00;;;19.60;83.80;;;;;;6181881;23;19997;-70
2021/10/28 02:35:01;;;;;;;7.68;4.47;;;19.60;83.90;;;;;;6181122;23;20001;-71
2021/10/28 02:37:28;;;;;;;12.02;4.10;;;19.60;83.90;;;;;;6181726;23;20005;-72
2021/10/28 02:39:54;;;;;;;10.55;5.60;;;19.60;83.70;;;;;;6182022;23;19997;-71
2021/10/28 02:42:21;;;;;;;12.55;5.15;;;19.60;83.70;;;;;;6180894;23;20436;-71
2021/10/28 02:44:48;;;;;;;11.25;4.53;;;19.60;83.70;;;;;;6182221;23;20063;-72
2021/10/28 02:47:15;;;;;;;9.25;3.75;;;19.50;83.80;;;;;;6180858;23;20432;-71
2021/10/28 02:49:42;;;;;;;10.07;4.45;;;19.50;83.90;;;;;;6182189;23;20001;-71
2021/10/28 02:52:08;;;;;;;12.13;5.18;;;19.50;83.90;;;;;;6180673;23;19997;-71
2021/10/28 02:54:37;;;;;;;13.80;4.72;;;19.50;84.00;;;;;;6181818;23;20009;-71
2021/10/28 02:57:04;;;;;;;18.05;5.07;;;19.50;83.90;;;;;;6181446;23;20388;-71
2021/10/28 02:59:31;;;;;;;10.77;5.22;;;19.50;84.00;;;;;;6181310;23;20032;-71
2021/10/28 03:01:57;;;;;;;15.38;4.90;;;19.40;83.90;;;;;;6184235;23;20459;-71
2021/10/28 03:04:24;;;;;;;9.00;4.10;;;19.40;84.10;;;;;;6182453;23;20008;-71
2021/10/28 03:06:52;;;;;;;12.90;5.57;;;19.40;84.10;;;;;;6183656;23;20005;-69
2021/10/28 03:09:24;;;;;;;31.65;20.45;;;19.40;84.00;;;;;;6182463;23;20428;-72
2021/10/28 03:11:54;;;;;;;49.17;34.85;;;19.40;84.10;;;;;;6183588;23;20021;-70
2021/10/28 03:14:32;;;;;;;19.10;11.32;;;19.40;84.20;;;;;;6183091;23;20009;-71
2021/10/28 03:19:39;;;;;;;10.60;4.20;;;19.40;83.80;;;;;;6184384;23;20079;-69
2021/10/28 03:28:15;;;;;;;13.75;5.13;;;19.30;83.70;;;;;;6183322;23;20388;-66
2021/10/28 03:31:21;;;;;;;10.45;4.97;;;19.30;83.70;;;;;;6181954;23;20005;-70
2021/10/28 03:34:28;;;;;;;15.80;5.28;;;19.30;83.80;;;;;;6182727;23;20111;-66
2021/10/28 03:37:42;;;;;;;13.25;6.72;;;19.20;83.60;;;;;;6183086;23;20002;-69
2021/10/28 03:43:54;;;;;;;9.43;4.50;;;19.20;83.80;;;;;;6181637;23;20048;-70
2021/10/28 03:57:20;;;;;;;16.52;11.88;;;19.20;83.60;;;;;;6183085;23;20302;-64
2021/10/28 07:04:34;;;;;;;16.33;3.85;;;20.00;78.70;;;;;;6220905;23;20379;-71
2021/10/28 07:07:00;;;;;;;9.55;3.40;;;19.90;78.40;;;;;;6219173;23;19989;-70
2021/10/28 07:09:39;;;;;;;12.95;3.55;;;19.90;78.80;;;;;;6220555;23;20335;-69
2021/10/28 07:12:26;;;;;;;7.22;3.00;;;19.90;78.90;;;;;;6219442;23;20004;-70
2021/10/28 07:14:58;;;;;;;15.30;3.67;;;20.00;78.80;;;;;;6220246;23;20019;-70
2021/10/28 07:17:41;;;;;;;13.02;4.63;;;20.00;78.20;;;;;;6220641;23;20079;-69
2021/10/28 07:27:55;;;;;;;13.68;4.10;;;20.00;78.50;;;;;;6214062;23;20000;-70
2021/10/28 07:30:43;;;;;;;8.98;4.32;;;20.00;78.50;;;;;;6213415;23;19997;-70
2021/10/28 07:33:58;;;;;;;14.50;3.67;;;20.00;78.30;;;;;;6211990;23;20093;-70
2021/10/28 07:38:45;;;;;;;14.68;4.03;;;20.00;78.00;;;;;;6212673;23;20004;-70
2021/10/28 08:22:00;;;;;;;21.08;5.07;;;20.10;76.00;;;;;;6212498;23;20055;-69
2021/10/28 08:29:49;;;;;;;15.90;4.22;;;20.30;75.40;;;;;;6211753;23;20012;-69
2021/10/28 08:32:16;;;;;;;11.65;3.70;;;20.30;75.00;;;;;;6213128;23;20031;-68
2021/10/28 08:34:44;;;;;;;15.13;4.78;;;20.40;74.80;;;;;;6212067;23;20008;-70
2021/10/28 08:37:15;;;;;;;15.55;5.65;;;20.50;74.00;;;;;;6212048;23;20051;-70
2021/10/28 08:39:46;;;;;;;21.80;7.35;;;20.50;73.80;;;;;;6212875;23;20079;-70
2021/10/28 08:42:15;;;;;;;17.15;4.15;;;20.60;73.00;;;;;;6211603;23;20088;-69
2021/10/28 08:44:45;;;;;;;22.60;4.47;;;20.70;72.20;;;;;;6212701;23;20054;-70
2021/10/28 08:47:12;;;;;;;15.38;4.10;;;20.80;70.80;;;;;;6211497;23;20063;-69
2021/10/28 08:49:45;;;;;;;15.98;4.18;;;20.80;70.90;;;;;;6213701;23;20063;-70
2021/10/28 09:26:31;;;;;;;14.75;3.80;;;22.10;66.90;;;;;;6211434;23;20115;-65
2021/10/28 09:30:08;;;;;;;19.23;5.07;;;22.10;66.50;;;;;;6212170;23;20365;-65
2021/10/28 09:32:26;;;;;;;12.75;4.57;;;22.20;66.30;;;;;;6196084;23;20013;-69
2021/10/28 09:46:36;;;;;;;16.02;5.00;;;22.60;64.80;;;;;;6212186;23;20012;-66
2021/10/28 09:52:03;;;;;;;17.50;4.72;;;22.60;64.80;;;;;;6211530;23;20012;-70
2021/10/28 09:55:04;;;;;;;15.90;5.40;;;22.60;64.90;;;;;;6213034;23;20376;-66
2021/10/28 10:00:18;;;;;;;15.40;4.82;;;22.50;64.60;;;;;;6211357;23;20012;-70
2021/10/28 10:02:56;;;;;;;16.30;4.53;;;22.50;64.60;;;;;;6211987;23;20013;-65
2021/10/28 10:05:25;;;;;;;19.58;4.93;;;22.50;64.80;;;;;;6211317;23;20374;-68
2021/10/28 10:07:52;;;;;;;16.00;6.28;;;22.60;64.60;;;;;;6212047;23;20047;-65
2021/10/28 10:10:23;;;;;;;17.45;4.93;;;22.70;64.70;;;;;;6212049;23;19996;-68
2021/10/28 10:12:51;;;;;;;16.23;5.22;;;22.80;64.50;;;;;;6211126;23;20004;-68
2021/10/28 10:15:18;;;;;;;17.52;5.20;;;22.90;63.90;;;;;;6212105;23;20003;-66
2021/10/28 10:17:57;;;;;;;17.58;5.15;;;22.90;63.60;;;;;;6211176;23;20024;-66
2021/10/28 11:05:09;;;;;;;19.20;5.47;;;24.20;60.80;;;;;;6213179;23;20339;-69
2021/10/28 11:31:29;;;;;;;18.17;5.43;;;24.30;60.30;;;;;;6212364;23;20734;-70
2021/10/28 14:29:28;;;;;;;21.02;6.15;;;23.90;63.60;;;;;;5054814;28;20024;-75
2021/10/28 15:28:21;;;;;;;19.63;5.30;;;23.30;64.20;;;;;;5043577;28;20458;-68
2021/10/28 15:36:22;;;;;;;16.27;4.32;;;23.40;64.60;;;;;;5041971;28;20051;-71
2021/10/28 15:58:00;;;;;;;18.20;5.25;;;23.00;67.00;;;;;;5029127;28;20183;-68
2021/10/28 16:22:27;;;;;;;13.40;3.75;;;22.50;70.20;;;;;;5041015;28;20150;-68
2021/10/28 16:24:54;;;;;;;16.02;4.30;;;22.40;70.40;;;;;;5041970;28;20454;-74
2021/10/28 16:27:21;;;;;;;13.88;4.38;;;22.40;70.90;;;;;;5041320;28;20032;-67
2021/10/28 16:29:47;;;;;;;16.23;5.47;;;22.40;70.80;;;;;;5041135;28;20059;-68
2021/10/28 16:32:16;;;;;;;13.85;4.57;;;22.30;70.90;;;;;;5041936;28;20908;-70
2021/10/28 16:34:43;;;;;;;17.60;4.43;;;22.30;71.20;;;;;;5049770;28;20039;-67
2021/10/28 16:37:10;;;;;;;16.73;4.53;;;22.30;71.20;;;;;;5047002;28;20027;-68
2021/10/28 16:39:36;;;;;;;16.35;4.32;;;22.30;71.30;;;;;;5041450;28;20079;-68
2021/10/28 16:42:03;;;;;;;15.35;4.05;;;22.20;71.20;;;;;;5044848;28;20066;-72
2021/10/28 16:44:30;;;;;;;11.95;3.88;;;22.00;72.00;;;;;;5049155;28;20051;-70
2021/10/28 16:46:56;;;;;;;12.93;4.50;;;22.00;72.30;;;;;;5040809;28;20032;-67
2021/10/28 16:49:23;;;;;;;18.65;3.97;;;21.90;72.40;;;;;;5040503;28;20009;-68
2021/10/28 16:51:50;;;;;;;11.95;3.65;;;21.90;72.70;;;;;;5041996;28;20075;-67
2021/10/28 16:54:18;;;;;;;16.58;5.72;;;21.90;72.60;;;;;;5036275;28;20166;-68
2021/10/28 16:56:46;;;;;;;12.75;3.10;;;21.90;72.20;;;;;;5041626;28;20033;-69
2021/10/28 16:59:13;;;;;;;8.27;2.75;;;21.80;72.20;;;;;;5039789;28;20649;-75
2021/10/28 17:01:41;;;;;;;9.98;3.33;;;21.70;72.70;;;;;;5042679;28;20024;-69
2021/10/28 17:04:08;;;;;;;10.82;4.60;;;21.70;73.30;;;;;;5046946;28;20070;-68
2021/10/28 17:06:34;;;;;;;19.30;3.88;;;21.70;73.20;;;;;;5043980;28;20013;-73
2021/10/28 17:09:06;;;;;;;13.70;4.18;;;21.70;73.80;;;;;;5037296;28;20477;-68
2021/10/28 17:11:34;;;;;;;11.88;3.95;;;21.60;73.80;;;;;;5037291;28;20496;-71
2021/10/28 17:14:03;;;;;;;15.68;4.78;;;21.50;73.90;;;;;;5047537;28;20114;-68
2021/10/28 17:16:30;;;;;;;14.70;3.80;;;21.50;73.80;;;;;;5042658;28;20024;-72
2021/10/28 17:18:58;;;;;;;11.70;2.97;;;21.50;73.40;;;;;;5036821;28;20097;-75
2021/10/28 17:21:25;;;;;;;35.53;16.75;;;21.40;73.30;;;;;;5041650;28;20027;-80
2021/10/28 17:24:19;;;;;;;22.27;11.85;;;21.50;73.80;;;;;;5040128;28;20147;-73
2021/10/28 17:26:45;;;;;;;18.25;5.28;;;21.50;73.90;;;;;;5037791;28;20103;-75
2021/10/28 17:29:12;;;;;;;13.95;3.72;;;21.60;74.00;;;;;;5036774;28;20001;-71
2021/10/28 17:31:38;;;;;;;8.52;3.03;;;21.60;73.40;;;;;;5041097;28;20013;-74
2021/10/28 17:34:05;;;;;;;14.32;4.10;;;21.60;73.10;;;;;;5037439;28;20044;-73
2021/10/28 17:36:32;;;;;;;15.55;3.42;;;21.60;73.70;;;;;;5042214;28;20017;-79
2021/10/28 17:39:00;;;;;;;15.55;4.50;;;21.60;73.70;;;;;;5041959;28;20107;-80
2021/10/28 17:41:27;;;;;;;11.82;3.55;;;21.60;73.60;;;;;;5038407;28;20511;-66
2021/10/28 17:43:55;;;;;;;12.85;4.05;;;21.50;72.90;;;;;;5041744;28;20028;-67
2021/10/28 17:46:26;;;;;;;9.05;3.13;;;21.50;72.70;;;;;;5041735;28;20364;-74
2021/10/28 17:48:52;;;;;;;12.52;4.47;;;21.40;73.20;;;;;;5041483;28;20110;-80
2021/10/28 17:51:20;;;;;;;22.98;9.15;;;21.50;73.80;;;;;;5037899;28;20136;-66
2021/10/28 17:53:48;;;;;;;41.03;24.52;;;21.40;74.40;;;;;;5043782;28;20098;-75
2021/10/28 17:56:16;;;;;;;14.68;4.95;;;21.40;74.80;;;;;;5040025;28;20013;-68
2021/10/28 17:58:43;;;;;;;17.02;5.38;;;21.50;75.10;;;;;;5040539;28;20021;-68
2021/10/28 18:01:11;;;;;;;13.00;4.03;;;21.40;75.30;;;;;;5035321;28;20108;-67
2021/10/28 18:03:38;;;;;;;11.70;3.47;;;21.30;75.40;;;;;;5039051;28;20615;-71
2021/10/28 18:06:04;;;;;;;13.73;4.43;;;21.30;76.00;;;;;;5036777;28;20021;-69
2021/10/28 18:08:31;;;;;;;16.08;4.43;;;21.30;76.30;;;;;;5035047;28;20616;-67
2021/10/28 18:10:58;;;;;;;19.95;5.20;;;21.30;76.40;;;;;;5040414;28;20029;-68
2021/10/28 18:13:25;;;;;;;16.67;5.32;;;21.20;76.60;;;;;;5030880;28;20025;-70
2021/10/28 18:15:52;;;;;;;14.05;4.15;;;21.20;76.30;;;;;;5033629;28;20087;-68
2021/10/28 18:18:19;;;;;;;15.38;4.63;;;21.20;76.30;;;;;;5027313;28;20088;-74
2021/10/28 18:20:47;;;;;;;13.68;3.85;;;21.20;76.10;;;;;;5034699;28;20037;-73
2021/10/28 18:23:13;;;;;;;11.50;4.75;;;21.20;75.80;;;;;;5036971;28;20017;-74
2021/10/28 18:25:40;;;;;;;11.90;4.57;;;21.10;75.30;;;;;;5036819;28;20502;-77
2021/10/28 18:28:06;;;;;;;10.98;3.92;;;21.10;75.10;;;;;;5041409;28;20146;-72
2021/10/28 18:30:36;;;;;;;9.25;3.30;;;21.10;74.90;;;;;;5037498;28;20106;-72
2021/10/28 18:33:04;;;;;;;14.65;3.95;;;21.10;74.70;;;;;;5039022;28;20174;-73
2021/10/28 18:35:31;;;;;;;33.88;23.75;;;21.10;74.50;;;;;;5035878;28;20510;-70
2021/10/28 18:37:57;;;;;;;32.80;6.93;;;21.00;74.90;;;;;;5037702;28;20530;-72
2021/10/28 18:40:24;;;;;;;15.02;3.67;;;21.10;74.70;;;;;;5038685;28;20017;-68
2021/10/28 18:42:51;;;;;;;8.05;3.90;;;21.00;74.30;;;;;;5040479;28;20017;-75
2021/10/28 18:45:18;;;;;;;9.32;3.55;;;21.00;74.30;;;;;;5052017;28;20033;-67
2021/10/28 18:47:45;;;;;;;15.45;3.55;;;21.00;74.50;;;;;;5036459;28;20017;-67
2021/10/28 18:50:12;;;;;;;7.72;3.25;;;20.90;74.70;;;;;;5036343;28;20044;-67
2021/10/28 18:52:39;;;;;;;12.25;3.17;;;20.90;74.70;;;;;;5034219;28;20651;-68
2021/10/28 18:55:06;;;;;;;10.32;3.97;;;20.80;74.90;;;;;;5037940;28;20395;-68
2021/10/28 18:57:33;;;;;;;8.55;3.05;;;20.80;74.80;;;;;;5040595;28;20017;-68
2021/10/28 19:00:00;;;;;;;9.43;2.55;;;20.80;75.10;;;;;;5034052;28;20013;-70
2021/10/28 19:02:36;;;;;;;12.25;3.88;;;20.80;75.40;;;;;;5038640;28;20029;-77
2021/10/28 19:05:05;;;;;;;105.15;86.60;;;20.80;75.80;;;;;;5036421;28;20061;-69
2021/10/28 19:07:32;;;;;;;34.63;24.38;;;20.80;76.00;;;;;;5033701;28;20473;-79
2021/10/28 19:09:59;;;;;;;11.15;4.13;;;20.80;76.40;;;;;;5032077;28;20025;-73
2021/10/28 19:12:26;;;;;;;9.85;4.15;;;20.80;76.50;;;;;;5034619;28;20483;-75
2021/10/28 19:14:54;;;;;;;9.10;2.65;;;20.80;76.40;;;;;;5035550;28;20083;-73
2021/10/28 19:17:21;;;;;;;10.75;2.60;;;20.80;76.50;;;;;;5030893;28;20033;-76
2021/10/28 19:19:48;;;;;;;8.63;2.67;;;20.80;76.60;;;;;;5033544;28;20035;-77
2021/10/28 19:22:15;;;;;;;88.50;64.50;;;20.80;76.70;;;;;;5037750;28;20461;-72
2021/10/28 19:24:41;;;;;;;39.45;31.98;;;20.80;76.90;;;;;;5034516;28;20589;-71
2021/10/28 19:27:08;;;;;;;15.90;7.13;;;20.80;76.60;;;;;;5033041;28;20029;-74
2021/10/28 19:29:38;;;;;;;11.93;3.90;;;20.80;76.50;;;;;;5039502;28;20025;-76
2021/10/28 19:32:10;;;;;;;12.18;3.13;;;20.80;76.60;;;;;;5036468;28;20021;-73
2021/10/28 19:34:40;;;;;;;9.40;3.22;;;20.70;76.60;;;;;;5034951;28;20021;-74
2021/10/28 19:46:11;;;;;;;24.23;11.20;;;20.60;77.00;;;;;;5027186;28;20471;-76
2021/10/28 19:48:39;;;;;;;29.13;12.43;;;20.60;77.20;;;;;;5033226;28;20029;-73
2021/10/28 19:51:10;;;;;;;18.55;7.75;;;20.60;77.40;;;;;;5042416;28;20026;-75
2021/10/28 19:53:38;;;;;;;12.15;2.80;;;20.60;77.60;;;;;;5040680;28;20032;-72
2021/10/28 19:56:09;;;;;;;14.63;4.38;;;20.60;77.30;;;;;;5037925;28;20986;-73
2021/10/28 19:58:40;;;;;;;12.35;2.92;;;20.50;77.20;;;;;;5038093;28;20051;-76
2021/10/28 20:04:25;;;;;;;7.32;2.25;;;20.50;76.80;;;;;;5042233;28;20067;-75
2021/10/28 20:07:01;;;;;;;9.52;2.72;;;20.60;76.80;;;;;;5042269;28;20029;-73
2021/10/28 22:35:24;;;;;;;5.07;1.73;;;19.30;76.30;;;;;;5103819;27;20495;-74
2021/10/28 22:40:29;;;;;;;5.85;1.80;;;19.60;74.70;;;;;;5084666;28;19908;-70
2021/10/28 22:42:56;;;;;;;6.13;2.03;;;19.60;74.40;;;;;;5087515;28;20031;-74
2021/10/28 22:45:22;;;;;;;11.43;2.00;;;19.60;74.20;;;;;;5088918;28;20111;-67
2021/10/28 22:47:49;;;;;;;10.15;2.10;;;19.60;74.20;;;;;;5099277;28;20024;-67
2021/10/28 22:50:15;;;;;;;12.02;1.90;;;19.60;74.20;;;;;;5086027;28;20023;-68
2021/10/28 22:52:45;;;;;;;7.75;2.13;;;19.60;73.90;;;;;;5098802;28;20039;-67
2021/10/28 22:55:13;;;;;;;5.10;1.83;;;19.50;73.90;;;;;;5089787;28;20025;-67
2021/10/28 23:00:47;;;;;;;5.85;1.95;;;19.50;73.50;;;;;;5046284;28;20024;-67
2021/10/28 23:03:25;;;;;;;7.95;2.80;;;19.50;73.20;;;;;;5079184;28;20126;-67
2021/10/28 23:21:59;;;;;;;5.15;1.95;;;19.30;71.80;;;;;;5087749;28;20283;-68
2021/10/28 23:24:26;;;;;;;7.78;2.10;;;19.30;71.80;;;;;;5097219;28;20092;-68
2021/10/28 23:26:53;;;;;;;3.78;1.52;;;19.30;72.00;;;;;;5090941;28;20032;-74
2021/10/28 23:29:19;;;;;;;7.25;1.85;;;19.30;72.20;;;;;;5094167;28;20060;-69
2021/10/28 23:31:46;;;;;;;4.25;1.42;;;19.30;72.50;;;;;;5091303;28;20082;-69
2021/10/28 23:34:12;;;;;;;5.40;1.95;;;19.30;72.60;;;;;;5083898;28;20040;-68
2021/10/28 23:36:39;;;;;;;7.18;2.17;;;19.20;72.80;;;;;;5077799;28;20017;-67
2021/10/28 23:39:06;;;;;;;6.50;1.95;;;19.20;73.20;;;;;;5077894;28;20382;-69
2021/10/28 23:41:33;;;;;;;5.95;1.55;;;19.20;73.30;;;;;;5080972;28;20028;-71
2021/10/28 23:43:59;;;;;;;2.30;1.35;;;19.20;73.40;;;;;;5076515;28;20115;-69
2021/10/28 23:46:26;;;;;;;8.20;1.67;;;19.20;73.20;;;;;;5073697;28;20402;-76
2021/10/28 23:48:52;;;;;;;8.15;1.35;;;19.20;73.30;;;;;;5079222;28;20016;-72
2021/10/28 23:51:19;;;;;;;9.00;2.40;;;19.20;73.40;;;;;;5077181;28;20020;-71
2021/10/28 23:53:45;;;;;;;10.27;1.23;;;19.20;74.00;;;;;;5079623;28;20008;-72
2021/10/28 23:56:12;;;;;;;6.80;2.80;;;19.20;73.00;;;;;;5078862;28;20375;-68
2021/10/28 23:58:38;;;;;;;7.38;2.15;;;19.20;73.20;;;;;;5072090;28;20056;-67
